Armstrong, PA

9:22 AM EDT on March 27, 2015 (GMT -0400)
KPAWILLI1 | | Change Station
CLOSE
Current Station
Personal Weather Station
Location: Williamsport, PA
Elevation: 535 ft
Nearby Weather Stations

Elev 535 ft 41.25 °N, 76.96 °W | Updated 9 minutes ago

Mostly Cloudy
Mostly Cloudy
37.3 °F
Feels Like 37 °F
N
0.0
Wind Variable Wind from North
Gusts 0.0 mph

Today
High -- | Low -- °F
--% Chance of Precip.
Yesterday
High -- | Low -- °F
Precip. -- in
7:00 AM 7:27 PM
First Quarter, 52% visible
Pressure 29.83 in
Visibility 10.0 miles
Clouds Scattered Clouds 6000 ft
Windchill 37 °F
Dew Point 31 °F
Humidity 77%
Rainfall -999.00 in
Snow Depth Not available.
UV 1 out of 12
Pollen 3.80 out of 12
Air Quality Not available.
Flu Activity Not available.
METAR KIPT 271254Z 27005KT 10SM SCT060 03/M01 A2981 RMK AO2 SLP099 T00331006

More Conditions Fewer Conditions

Pressure 29.83 in
Visibility 10.0 miles
Clouds Scattered Clouds 6000 ft
Windchill 37 °F
Dew Point 31 °F
Humidity 77%
Rainfall -999.00 in
Snow Depth Not available.
UV 1 out of 12
Pollen 3.80 out of 12
Air Quality Not available.
Flu Activity Not available.
METAR KIPT 271254Z 27005KT 10SM SCT060 03/M01 A2981 RMK AO2 SLP099 T00331006

More Conditions Fewer Conditions

Nowcast | as of 6:14 am EDT on March 27, 2015

Patchy rain will be across the eastern and southern portions of central Pennsylvania through 10 am. Most of the rain will be south and east of a Williamsport...Newport...Bedford line. The patches of rain are moving northeast at 40 mph.

×

10-Day Weather Forecast

Almanac

Astronomy

Mar. 27, 2015 Rise Set
Actual Time
Civil Twilight
Nautical Twilight
Astronomical Twilight
Moon
Length of Visible Light
Length of Day
Tomorrow will be .
, % of the Moon is Illuminated

Today's Extremes

State Highs State Lows

Community

WunderPhotos

Upload Photos

1,808,729 photos uploaded!

WunderBlogs® & News

Nearby

Air Quality

  Air Quality AQ Index Pollutant
Not available.

Snow Depth

Station Depth Elevation

Earthquake Activity

City Distance Mag. Time & Date
Minimum magnitude displayed is 2.5.

Coastal Water Temperatures

Place Temperature

Stations

Nearby Weather Stations

Station Location Temp. Windchill Dew Point Humidity Wind Precip. Elev Updated Type